sensor_id;sensor_type;location;lat;lon;timestamp;temperature;humidity
24678;DHT22;12800;53.094;8.778;2022-10-16T00:01:48;15.20;87.20
24678;DHT22;12800;53.094;8.778;2022-10-16T00:04:14;15.20;87.20
24678;DHT22;12800;53.094;8.778;2022-10-16T00:06:40;15.10;87.10
24678;DHT22;12800;53.094;8.778;2022-10-16T00:09:06;15.10;87.20
24678;DHT22;12800;53.094;8.778;2022-10-16T00:11:34;15.10;87.30
24678;DHT22;12800;53.094;8.778;2022-10-16T00:14:03;15.10;87.10
24678;DHT22;12800;53.094;8.778;2022-10-16T00:16:29;15.10;87.00
24678;DHT22;12800;53.094;8.778;2022-10-16T00:18:56;15.10;86.90
24678;DHT22;12800;53.094;8.778;2022-10-16T00:21:25;15.10;87.00
24678;DHT22;12800;53.094;8.778;2022-10-16T00:23:56;15.10;86.90
24678;DHT22;12800;53.094;8.778;2022-10-16T00:26:22;15.10;86.80
24678;DHT22;12800;53.094;8.778;2022-10-16T00:28:49;15.00;86.60
24678;DHT22;12800;53.094;8.778;2022-10-16T00:31:16;15.00;86.50
24678;DHT22;12800;53.094;8.778;2022-10-16T00:33:42;15.00;86.50
24678;DHT22;12800;53.094;8.778;2022-10-16T00:36:12;15.00;86.40
24678;DHT22;12800;53.094;8.778;2022-10-16T00:38:38;15.00;86.40
24678;DHT22;12800;53.094;8.778;2022-10-16T00:41:09;14.90;86.30
24678;DHT22;12800;53.094;8.778;2022-10-16T00:43:51;14.90;86.40
24678;DHT22;12800;53.094;8.778;2022-10-16T00:51:25;14.80;86.10
24678;DHT22;12800;53.094;8.778;2022-10-16T00:53:51;14.80;86.20
24678;DHT22;12800;53.094;8.778;2022-10-16T00:56:18;14.80;86.10
24678;DHT22;12800;53.094;8.778;2022-10-16T00:58:44;14.80;86.10
24678;DHT22;12800;53.094;8.778;2022-10-16T01:01:09;14.70;86.10
24678;DHT22;12800;53.094;8.778;2022-10-16T01:03:36;14.70;86.20
24678;DHT22;12800;53.094;8.778;2022-10-16T01:15:08;14.60;86.30
24678;DHT22;12800;53.094;8.778;2022-10-16T01:17:13;14.60;86.30
24678;DHT22;12800;53.094;8.778;2022-10-16T01:19:44;14.60;86.30
24678;DHT22;12800;53.094;8.778;2022-10-16T01:22:15;14.60;86.30
24678;DHT22;12800;53.094;8.778;2022-10-16T01:24:46;14.60;86.30
24678;DHT22;12800;53.094;8.778;2022-10-16T01:27:23;14.50;86.30
24678;DHT22;12800;53.094;8.778;2022-10-16T01:32:33;14.50;86.20
24678;DHT22;12800;53.094;8.778;2022-10-16T01:35:36;14.50;86.30
24678;DHT22;12800;53.094;8.778;2022-10-16T01:38:06;14.50;86.30
24678;DHT22;12800;53.094;8.778;2022-10-16T01:40:34;14.40;86.20
24678;DHT22;12800;53.094;8.778;2022-10-16T01:43:28;14.40;86.30
24678;DHT22;12800;53.094;8.778;2022-10-16T01:45:56;14.40;86.30
24678;DHT22;12800;53.094;8.778;2022-10-16T01:48:23;14.40;86.30
24678;DHT22;12800;53.094;8.778;2022-10-16T01:51:06;14.40;86.40
24678;DHT22;12800;53.094;8.778;2022-10-16T01:53:32;14.30;86.40
24678;DHT22;12800;53.094;8.778;2022-10-16T01:55:59;14.30;86.40
24678;DHT22;12800;53.094;8.778;2022-10-16T01:58:28;14.30;86.40
24678;DHT22;12800;53.094;8.778;2022-10-16T02:00:59;14.30;86.50
24678;DHT22;12800;53.094;8.778;2022-10-16T02:03:25;14.30;86.50
24678;DHT22;12800;53.094;8.778;2022-10-16T02:05:56;14.30;86.60
24678;DHT22;12800;53.094;8.778;2022-10-16T02:08:24;14.30;86.50
24678;DHT22;12800;53.094;8.778;2022-10-16T02:10:51;14.30;86.50
24678;DHT22;12800;53.094;8.778;2022-10-16T02:13:21;14.30;86.40
24678;DHT22;12800;53.094;8.778;2022-10-16T02:15:47;14.30;86.50
24678;DHT22;12800;53.094;8.778;2022-10-16T02:18:13;14.30;86.50
24678;DHT22;12800;53.094;8.778;2022-10-16T02:21:01;14.30;86.60
24678;DHT22;12800;53.094;8.778;2022-10-16T02:23:50;14.30;86.60
24678;DHT22;12800;53.094;8.778;2022-10-16T02:26:30;14.30;86.60
24678;DHT22;12800;53.094;8.778;2022-10-16T02:29:01;14.30;86.50
24678;DHT22;12800;53.094;8.778;2022-10-16T02:31:32;14.30;86.60
24678;DHT22;12800;53.094;8.778;2022-10-16T02:34:00;14.30;86.50
24678;DHT22;12800;53.094;8.778;2022-10-16T02:36:27;14.30;86.50
24678;DHT22;12800;53.094;8.778;2022-10-16T02:38:53;14.20;86.60
24678;DHT22;12800;53.094;8.778;2022-10-16T02:41:21;14.30;86.60
24678;DHT22;12800;53.094;8.778;2022-10-16T02:43:47;14.30;86.50
24678;DHT22;12800;53.094;8.778;2022-10-16T02:46:13;14.30;86.40
24678;DHT22;12800;53.094;8.778;2022-10-16T02:48:38;14.30;86.40
24678;DHT22;12800;53.094;8.778;2022-10-16T02:51:04;14.30;86.30
24678;DHT22;12800;53.094;8.778;2022-10-16T02:53:30;14.30;86.20
24678;DHT22;12800;53.094;8.778;2022-10-16T02:55:55;14.30;86.20
24678;DHT22;12800;53.094;8.778;2022-10-16T02:58:21;14.30;86.10
24678;DHT22;12800;53.094;8.778;2022-10-16T03:00:47;14.20;86.10
24678;DHT22;12800;53.094;8.778;2022-10-16T03:03:12;14.30;86.20
24678;DHT22;12800;53.094;8.778;2022-10-16T03:05:38;14.30;86.10
24678;DHT22;12800;53.094;8.778;2022-10-16T03:08:04;14.20;86.10
24678;DHT22;12800;53.094;8.778;2022-10-16T03:10:29;14.20;86.10
24678;DHT22;12800;53.094;8.778;2022-10-16T03:12:55;14.20;86.10
24678;DHT22;12800;53.094;8.778;2022-10-16T03:15:20;14.20;86.20
24678;DHT22;12800;53.094;8.778;2022-10-16T03:17:46;14.20;86.10
24678;DHT22;12800;53.094;8.778;2022-10-16T03:20:11;14.20;86.10
24678;DHT22;12800;53.094;8.778;2022-10-16T03:22:37;14.20;86.10
24678;DHT22;12800;53.094;8.778;2022-10-16T03:25:03;14.20;86.10
24678;DHT22;12800;53.094;8.778;2022-10-16T03:27:29;14.20;86.10
24678;DHT22;12800;53.094;8.778;2022-10-16T03:29:54;14.20;86.10
24678;DHT22;12800;53.094;8.778;2022-10-16T03:32:20;14.20;86.20
24678;DHT22;12800;53.094;8.778;2022-10-16T03:34:46;14.20;86.20
24678;DHT22;12800;53.094;8.778;2022-10-16T03:37:12;14.10;86.30
24678;DHT22;12800;53.094;8.778;2022-10-16T03:39:38;14.10;86.30
24678;DHT22;12800;53.094;8.778;2022-10-16T03:42:03;14.10;86.30
24678;DHT22;12800;53.094;8.778;2022-10-16T03:44:30;14.10;86.40
24678;DHT22;12800;53.094;8.778;2022-10-16T03:46:55;14.10;86.40
24678;DHT22;12800;53.094;8.778;2022-10-16T03:49:21;14.10;86.50
24678;DHT22;12800;53.094;8.778;2022-10-16T03:51:47;14.10;86.50
24678;DHT22;12800;53.094;8.778;2022-10-16T03:54:12;14.10;86.60
24678;DHT22;12800;53.094;8.778;2022-10-16T03:56:38;14.10;86.60
24678;DHT22;12800;53.094;8.778;2022-10-16T03:59:04;14.10;86.60
24678;DHT22;12800;53.094;8.778;2022-10-16T04:01:30;14.10;86.60
24678;DHT22;12800;53.094;8.778;2022-10-16T04:03:55;14.10;86.70
24678;DHT22;12800;53.094;8.778;2022-10-16T04:06:21;14.10;86.70
24678;DHT22;12800;53.094;8.778;2022-10-16T04:08:47;14.10;86.80
24678;DHT22;12800;53.094;8.778;2022-10-16T04:11:12;14.10;86.80
24678;DHT22;12800;53.094;8.778;2022-10-16T04:13:38;14.10;86.80
24678;DHT22;12800;53.094;8.778;2022-10-16T04:16:04;14.10;86.90
24678;DHT22;12800;53.094;8.778;2022-10-16T04:18:30;14.10;87.10
24678;DHT22;12800;53.094;8.778;2022-10-16T04:20:55;14.10;87.10
24678;DHT22;12800;53.094;8.778;2022-10-16T04:23:21;14.00;87.10
24678;DHT22;12800;53.094;8.778;2022-10-16T04:25:48;14.00;87.20
24678;DHT22;12800;53.094;8.778;2022-10-16T04:28:14;14.00;87.30
24678;DHT22;12800;53.094;8.778;2022-10-16T04:30:39;14.00;87.50
24678;DHT22;12800;53.094;8.778;2022-10-16T04:33:05;14.00;87.70
24678;DHT22;12800;53.094;8.778;2022-10-16T04:35:30;14.00;87.80
24678;DHT22;12800;53.094;8.778;2022-10-16T04:37:59;14.00;87.80
24678;DHT22;12800;53.094;8.778;2022-10-16T04:40:25;14.00;88.00
24678;DHT22;12800;53.094;8.778;2022-10-16T04:42:50;14.00;88.10
24678;DHT22;12800;53.094;8.778;2022-10-16T04:45:16;14.10;88.20
24678;DHT22;12800;53.094;8.778;2022-10-16T04:47:41;14.10;88.30
24678;DHT22;12800;53.094;8.778;2022-10-16T04:50:07;14.10;88.40
24678;DHT22;12800;53.094;8.778;2022-10-16T04:52:33;14.10;88.50
24678;DHT22;12800;53.094;8.778;2022-10-16T04:54:59;14.10;88.50
24678;DHT22;12800;53.094;8.778;2022-10-16T04:57:28;14.20;88.60
24678;DHT22;12800;53.094;8.778;2022-10-16T04:59:54;14.20;88.70
24678;DHT22;12800;53.094;8.778;2022-10-16T05:02:20;14.20;89.50
24678;DHT22;12800;53.094;8.778;2022-10-16T05:04:45;14.20;88.70
24678;DHT22;12800;53.094;8.778;2022-10-16T05:07:11;14.20;88.80
24678;DHT22;12800;53.094;8.778;2022-10-16T05:09:37;14.20;88.80
24678;DHT22;12800;53.094;8.778;2022-10-16T05:12:02;14.20;88.90
24678;DHT22;12800;53.094;8.778;2022-10-16T05:14:29;14.20;89.00
24678;DHT22;12800;53.094;8.778;2022-10-16T05:16:54;14.20;89.00
24678;DHT22;12800;53.094;8.778;2022-10-16T05:19:20;14.20;89.10
24678;DHT22;12800;53.094;8.778;2022-10-16T05:21:46;14.20;89.20
24678;DHT22;12800;53.094;8.778;2022-10-16T05:24:11;14.30;89.30
24678;DHT22;12800;53.094;8.778;2022-10-16T05:26:37;14.30;89.40
24678;DHT22;12800;53.094;8.778;2022-10-16T05:29:03;14.30;89.40
24678;DHT22;12800;53.094;8.778;2022-10-16T05:31:29;14.30;89.40
24678;DHT22;12800;53.094;8.778;2022-10-16T05:34:00;14.40;89.50
24678;DHT22;12800;53.094;8.778;2022-10-16T05:36:26;14.40;89.40
24678;DHT22;12800;53.094;8.778;2022-10-16T05:38:52;14.40;89.50
24678;DHT22;12800;53.094;8.778;2022-10-16T05:41:18;14.40;89.50
24678;DHT22;12800;53.094;8.778;2022-10-16T05:43:50;14.40;89.40
24678;DHT22;12800;53.094;8.778;2022-10-16T05:46:16;14.40;89.40
24678;DHT22;12800;53.094;8.778;2022-10-16T05:48:41;14.40;89.40
24678;DHT22;12800;53.094;8.778;2022-10-16T05:51:10;14.40;89.50
24678;DHT22;12800;53.094;8.778;2022-10-16T05:53:37;14.40;89.50
24678;DHT22;12800;53.094;8.778;2022-10-16T05:56:04;14.40;89.60
24678;DHT22;12800;53.094;8.778;2022-10-16T05:58:33;14.40;89.60
24678;DHT22;12800;53.094;8.778;2022-10-16T06:01:09;14.40;89.60
24678;DHT22;12800;53.094;8.778;2022-10-16T06:03:35;14.40;89.60
24678;DHT22;12800;53.094;8.778;2022-10-16T06:06:11;14.40;89.70
24678;DHT22;12800;53.094;8.778;2022-10-16T06:08:37;14.50;89.80
24678;DHT22;12800;53.094;8.778;2022-10-16T06:11:05;14.50;89.80
24678;DHT22;12800;53.094;8.778;2022-10-16T06:13:31;14.50;89.90
24678;DHT22;12800;53.094;8.778;2022-10-16T06:15:58;14.50;89.90
24678;DHT22;12800;53.094;8.778;2022-10-16T06:18:25;14.50;89.90
24678;DHT22;12800;53.094;8.778;2022-10-16T06:20:51;14.50;90.00
24678;DHT22;12800;53.094;8.778;2022-10-16T06:23:16;14.50;90.00
24678;DHT22;12800;53.094;8.778;2022-10-16T06:25:42;14.50;90.00
24678;DHT22;12800;53.094;8.778;2022-10-16T06:28:08;14.50;90.00
24678;DHT22;12800;53.094;8.778;2022-10-16T06:30:33;14.60;90.00
24678;DHT22;12800;53.094;8.778;2022-10-16T06:32:59;14.60;90.00
24678;DHT22;12800;53.094;8.778;2022-10-16T06:35:24;14.60;90.00
24678;DHT22;12800;53.094;8.778;2022-10-16T06:37:50;14.60;89.90
24678;DHT22;12800;53.094;8.778;2022-10-16T06:40:17;14.60;89.90
24678;DHT22;12800;53.094;8.778;2022-10-16T06:42:43;14.60;89.90
24678;DHT22;12800;53.094;8.778;2022-10-16T06:45:09;14.60;89.80
24678;DHT22;12800;53.094;8.778;2022-10-16T06:47:34;14.60;89.80
24678;DHT22;12800;53.094;8.778;2022-10-16T06:50:00;14.60;89.80
24678;DHT22;12800;53.094;8.778;2022-10-16T06:52:28;14.60;89.80
24678;DHT22;12800;53.094;8.778;2022-10-16T06:54:53;14.60;89.80
24678;DHT22;12800;53.094;8.778;2022-10-16T06:57:19;14.60;89.90
24678;DHT22;12800;53.094;8.778;2022-10-16T06:59:44;14.60;89.90
24678;DHT22;12800;53.094;8.778;2022-10-16T07:02:10;14.60;89.90
24678;DHT22;12800;53.094;8.778;2022-10-16T07:04:36;14.60;89.90
24678;DHT22;12800;53.094;8.778;2022-10-16T07:07:02;14.60;89.90
24678;DHT22;12800;53.094;8.778;2022-10-16T07:09:28;14.60;89.90
24678;DHT22;12800;53.094;8.778;2022-10-16T07:11:53;14.60;90.00
24678;DHT22;12800;53.094;8.778;2022-10-16T07:14:21;14.70;90.00
24678;DHT22;12800;53.094;8.778;2022-10-16T07:16:47;14.70;90.10
24678;DHT22;12800;53.094;8.778;2022-10-16T07:19:13;14.70;90.10
24678;DHT22;12800;53.094;8.778;2022-10-16T07:21:41;14.70;90.00
24678;DHT22;12800;53.094;8.778;2022-10-16T07:24:11;14.70;90.10
24678;DHT22;12800;53.094;8.778;2022-10-16T07:26:38;14.70;90.10
24678;DHT22;12800;53.094;8.778;2022-10-16T07:29:06;14.80;90.10
24678;DHT22;12800;53.094;8.778;2022-10-16T07:31:32;14.80;90.10
24678;DHT22;12800;53.094;8.778;2022-10-16T07:33:59;14.90;90.20
24678;DHT22;12800;53.094;8.778;2022-10-16T07:36:25;14.90;90.10
24678;DHT22;12800;53.094;8.778;2022-10-16T07:38:51;14.90;90.10
24678;DHT22;12800;53.094;8.778;2022-10-16T07:41:18;15.00;90.10
24678;DHT22;12800;53.094;8.778;2022-10-16T07:43:49;15.00;90.00
24678;DHT22;12800;53.094;8.778;2022-10-16T07:46:15;15.00;90.00
24678;DHT22;12800;53.094;8.778;2022-10-16T07:48:42;15.10;90.00
24678;DHT22;12800;53.094;8.778;2022-10-16T07:51:11;15.10;90.00
24678;DHT22;12800;53.094;8.778;2022-10-16T07:53:37;15.10;89.90
24678;DHT22;12800;53.094;8.778;2022-10-16T07:56:06;15.10;89.80
24678;DHT22;12800;53.094;8.778;2022-10-16T07:58:34;15.10;89.80
24678;DHT22;12800;53.094;8.778;2022-10-16T08:01:07;15.20;89.80
24678;DHT22;12800;53.094;8.778;2022-10-16T08:03:33;15.30;89.80
24678;DHT22;12800;53.094;8.778;2022-10-16T08:06:00;15.30;89.70
24678;DHT22;12800;53.094;8.778;2022-10-16T08:08:26;15.40;89.60
24678;DHT22;12800;53.094;8.778;2022-10-16T08:10:52;15.50;89.50
24678;DHT22;12800;53.094;8.778;2022-10-16T08:13:18;15.60;90.00
24678;DHT22;12800;53.094;8.778;2022-10-16T08:15:44;15.60;89.10
24678;DHT22;12800;53.094;8.778;2022-10-16T08:18:12;15.70;89.00
24678;DHT22;12800;53.094;8.778;2022-10-16T08:20:38;15.70;88.60
24678;DHT22;12800;53.094;8.778;2022-10-16T08:23:04;15.80;88.40
24678;DHT22;12800;53.094;8.778;2022-10-16T08:25:30;15.80;88.20
24678;DHT22;12800;53.094;8.778;2022-10-16T08:27:56;15.90;88.10
24678;DHT22;12800;53.094;8.778;2022-10-16T08:30:23;15.90;87.80
24678;DHT22;12800;53.094;8.778;2022-10-16T08:32:49;15.90;87.50
24678;DHT22;12800;53.094;8.778;2022-10-16T08:35:15;15.90;87.30
24678;DHT22;12800;53.094;8.778;2022-10-16T08:37:41;15.90;87.20
24678;DHT22;12800;53.094;8.778;2022-10-16T08:40:16;15.90;87.10
24678;DHT22;12800;53.094;8.778;2022-10-16T08:48:21;16.00;86.90
24678;DHT22;12800;53.094;8.778;2022-10-16T08:50:52;16.00;86.60
24678;DHT22;12800;53.094;8.778;2022-10-16T08:53:29;16.00;86.50
24678;DHT22;12800;53.094;8.778;2022-10-16T08:55:56;16.00;86.50
24678;DHT22;12800;53.094;8.778;2022-10-16T08:58:28;16.00;86.30
24678;DHT22;12800;53.094;8.778;2022-10-16T09:00:55;16.00;86.10
24678;DHT22;12800;53.094;8.778;2022-10-16T09:06:56;16.10;86.00
24678;DHT22;12800;53.094;8.778;2022-10-16T09:12:26;16.10;85.70
24678;DHT22;12800;53.094;8.778;2022-10-16T09:15:16;16.10;85.50
24678;DHT22;12800;53.094;8.778;2022-10-16T09:18:01;16.20;85.30
24678;DHT22;12800;53.094;8.778;2022-10-16T09:20:59;16.30;85.30
24678;DHT22;12800;53.094;8.778;2022-10-16T09:23:30;16.40;85.20
24678;DHT22;12800;53.094;8.778;2022-10-16T09:25:59;16.50;85.20
24678;DHT22;12800;53.094;8.778;2022-10-16T09:28:24;16.60;84.80
24678;DHT22;12800;53.094;8.778;2022-10-16T09:30:50;16.70;84.50
24678;DHT22;12800;53.094;8.778;2022-10-16T09:33:19;16.90;84.00
24678;DHT22;12800;53.094;8.778;2022-10-16T09:35:50;16.90;83.60
24678;DHT22;12800;53.094;8.778;2022-10-16T09:38:29;17.00;83.40
24678;DHT22;12800;53.094;8.778;2022-10-16T09:40:57;17.10;83.10
24678;DHT22;12800;53.094;8.778;2022-10-16T09:43:26;17.20;82.70
24678;DHT22;12800;53.094;8.778;2022-10-16T09:46:07;17.20;82.50
24678;DHT22;12800;53.094;8.778;2022-10-16T09:48:43;17.30;82.10
24678;DHT22;12800;53.094;8.778;2022-10-16T09:51:36;17.40;82.00
24678;DHT22;12800;53.094;8.778;2022-10-16T09:56:35;17.50;81.40
24678;DHT22;12800;53.094;8.778;2022-10-16T09:59:16;17.50;81.20
24678;DHT22;12800;53.094;8.778;2022-10-16T10:01:43;17.60;80.80
24678;DHT22;12800;53.094;8.778;2022-10-16T10:04:10;17.60;81.10
24678;DHT22;12800;53.094;8.778;2022-10-16T10:06:50;17.60;81.30
24678;DHT22;12800;53.094;8.778;2022-10-16T10:09:34;17.60;80.90
24678;DHT22;12800;53.094;8.778;2022-10-16T10:12:03;17.60;80.90
24678;DHT22;12800;53.094;8.778;2022-10-16T10:14:53;17.60;80.20
24678;DHT22;12800;53.094;8.778;2022-10-16T10:17:22;17.60;80.30
24678;DHT22;12800;53.094;8.778;2022-10-16T10:20:00;17.60;80.50
24678;DHT22;12800;53.094;8.778;2022-10-16T10:22:42;17.50;80.30
24678;DHT22;12800;53.094;8.778;2022-10-16T10:30:41;17.60;80.60
24678;DHT22;12800;53.094;8.778;2022-10-16T10:33:46;17.60;80.00
24678;DHT22;12800;53.094;8.778;2022-10-16T10:36:35;17.60;79.50
24678;DHT22;12800;53.094;8.778;2022-10-16T10:39:19;17.60;79.30
24678;DHT22;12800;53.094;8.778;2022-10-16T10:44:42;17.70;78.70
24678;DHT22;12800;53.094;8.778;2022-10-16T10:50:22;17.80;78.30
24678;DHT22;12800;53.094;8.778;2022-10-16T10:58:50;18.10;76.50
24678;DHT22;12800;53.094;8.778;2022-10-16T11:01:34;18.10;76.40
24678;DHT22;12800;53.094;8.778;2022-10-16T11:07:03;18.10;75.70
24678;DHT22;12800;53.094;8.778;2022-10-16T11:09:40;18.10;75.40
24678;DHT22;12800;53.094;8.778;2022-10-16T11:12:26;18.10;75.40
24678;DHT22;12800;53.094;8.778;2022-10-16T11:20:41;18.10;75.30
24678;DHT22;12800;53.094;8.778;2022-10-16T11:25:46;18.10;75.10
24678;DHT22;12800;53.094;8.778;2022-10-16T11:36:45;18.10;74.80
24678;DHT22;12800;53.094;8.778;2022-10-16T11:39:21;18.10;74.30
24678;DHT22;12800;53.094;8.778;2022-10-16T11:49:32;18.30;73.90
24678;DHT22;12800;53.094;8.778;2022-10-16T11:52:11;18.30;72.90
24678;DHT22;12800;53.094;8.778;2022-10-16T11:57:16;18.30;71.80
24678;DHT22;12800;53.094;8.778;2022-10-16T11:59:58;18.30;71.90
24678;DHT22;12800;53.094;8.778;2022-10-16T12:08:09;18.40;71.50
24678;DHT22;12800;53.094;8.778;2022-10-16T12:10:37;18.40;71.40
24678;DHT22;12800;53.094;8.778;2022-10-16T12:16:25;18.50;71.00
24678;DHT22;12800;53.094;8.778;2022-10-16T12:19:07;18.60;71.00
24678;DHT22;12800;53.094;8.778;2022-10-16T12:21:35;18.60;70.50
24678;DHT22;12800;53.094;8.778;2022-10-16T12:24:02;18.70;70.60
24678;DHT22;12800;53.094;8.778;2022-10-16T12:26:32;18.70;70.00
24678;DHT22;12800;53.094;8.778;2022-10-16T12:31:59;18.90;69.40
24678;DHT22;12800;53.094;8.778;2022-10-16T12:34:29;18.90;69.00
24678;DHT22;12800;53.094;8.778;2022-10-16T12:37:09;18.90;68.70
24678;DHT22;12800;53.094;8.778;2022-10-16T12:39:35;18.90;68.50
24678;DHT22;12800;53.094;8.778;2022-10-16T12:42:20;18.90;68.50
24678;DHT22;12800;53.094;8.778;2022-10-16T12:44:46;19.00;68.40
24678;DHT22;12800;53.094;8.778;2022-10-16T12:49:57;19.10;67.60
24678;DHT22;12800;53.094;8.778;2022-10-16T12:52:26;19.10;66.90
24678;DHT22;12800;53.094;8.778;2022-10-16T12:54:56;19.20;66.70
24678;DHT22;12800;53.094;8.778;2022-10-16T13:00:45;19.20;65.70
24678;DHT22;12800;53.094;8.778;2022-10-16T13:03:44;19.20;65.60
24678;DHT22;12800;53.094;8.778;2022-10-16T13:06:51;19.30;65.60
24678;DHT22;12800;53.094;8.778;2022-10-16T13:18:22;19.30;65.00
24678;DHT22;12800;53.094;8.778;2022-10-16T13:20:58;19.20;64.40
24678;DHT22;12800;53.094;8.778;2022-10-16T13:23:33;19.20;63.90
24678;DHT22;12800;53.094;8.778;2022-10-16T13:28:53;19.10;64.40
24678;DHT22;12800;53.094;8.778;2022-10-16T13:31:23;19.10;64.00
24678;DHT22;12800;53.094;8.778;2022-10-16T13:33:52;19.00;63.80
24678;DHT22;12800;53.094;8.778;2022-10-16T13:36:27;19.00;64.20
24678;DHT22;12800;53.094;8.778;2022-10-16T13:39:14;19.10;64.30
24678;DHT22;12800;53.094;8.778;2022-10-16T13:41:40;19.10;64.50
24678;DHT22;12800;53.094;8.778;2022-10-16T13:44:19;19.10;64.70
24678;DHT22;12800;53.094;8.778;2022-10-16T13:46:46;19.10;64.70
24678;DHT22;12800;53.094;8.778;2022-10-16T13:49:16;19.20;64.40
24678;DHT22;12800;53.094;8.778;2022-10-16T13:51:54;19.20;64.10
24678;DHT22;12800;53.094;8.778;2022-10-16T13:54:21;19.20;63.60
24678;DHT22;12800;53.094;8.778;2022-10-16T13:56:46;19.20;63.60
24678;DHT22;12800;53.094;8.778;2022-10-16T13:59:24;19.20;63.50
24678;DHT22;12800;53.094;8.778;2022-10-16T14:01:53;19.30;63.10
24678;DHT22;12800;53.094;8.778;2022-10-16T14:04:19;19.20;63.10
24678;DHT22;12800;53.094;8.778;2022-10-16T14:06:48;19.30;63.80
24678;DHT22;12800;53.094;8.778;2022-10-16T14:09:41;19.20;63.10
24678;DHT22;12800;53.094;8.778;2022-10-16T14:12:11;19.30;62.90
24678;DHT22;12800;53.094;8.778;2022-10-16T14:14:46;19.30;63.00
24678;DHT22;12800;53.094;8.778;2022-10-16T14:17:28;19.40;63.00
24678;DHT22;12800;53.094;8.778;2022-10-16T14:19:57;19.40;62.90
24678;DHT22;12800;53.094;8.778;2022-10-16T14:24:55;19.40;62.50
24678;DHT22;12800;53.094;8.778;2022-10-16T14:27:32;19.50;62.50
24678;DHT22;12800;53.094;8.778;2022-10-16T14:32:33;19.50;62.20
24678;DHT22;12800;53.094;8.778;2022-10-16T14:34:58;19.50;61.90
24678;DHT22;12800;53.094;8.778;2022-10-16T14:37:27;19.60;62.10
24678;DHT22;12800;53.094;8.778;2022-10-16T14:39:54;19.70;61.40
24678;DHT22;12800;53.094;8.778;2022-10-16T14:42:22;19.70;60.70
24678;DHT22;12800;53.094;8.778;2022-10-16T14:44:52;19.60;60.20
24678;DHT22;12800;53.094;8.778;2022-10-16T14:47:21;19.60;60.30
24678;DHT22;12800;53.094;8.778;2022-10-16T14:49:50;19.60;60.30
24678;DHT22;12800;53.094;8.778;2022-10-16T14:52:16;19.60;60.30
24678;DHT22;12800;53.094;8.778;2022-10-16T14:54:42;19.60;60.50
24678;DHT22;12800;53.094;8.778;2022-10-16T14:57:19;19.60;60.40
24678;DHT22;12800;53.094;8.778;2022-10-16T14:59:46;19.50;60.60
24678;DHT22;12800;53.094;8.778;2022-10-16T15:02:33;19.50;60.60
24678;DHT22;12800;53.094;8.778;2022-10-16T15:05:20;19.50;61.10
24678;DHT22;12800;53.094;8.778;2022-10-16T15:07:48;19.50;61.50
24678;DHT22;12800;53.094;8.778;2022-10-16T15:10:15;19.50;61.50
24678;DHT22;12800;53.094;8.778;2022-10-16T15:12:42;19.50;61.70
24678;DHT22;12800;53.094;8.778;2022-10-16T15:17:56;19.50;61.70
24678;DHT22;12800;53.094;8.778;2022-10-16T15:20:44;19.40;61.90
24678;DHT22;12800;53.094;8.778;2022-10-16T15:23:15;19.40;62.40
24678;DHT22;12800;53.094;8.778;2022-10-16T15:25:47;19.30;63.30
24678;DHT22;12800;53.094;8.778;2022-10-16T15:28:14;19.30;63.10
24678;DHT22;12800;53.094;8.778;2022-10-16T15:30:41;19.20;63.20
24678;DHT22;12800;53.094;8.778;2022-10-16T15:33:12;19.20;63.50
24678;DHT22;12800;53.094;8.778;2022-10-16T15:35:39;19.10;63.20
24678;DHT22;12800;53.094;8.778;2022-10-16T15:38:04;19.00;63.50
24678;DHT22;12800;53.094;8.778;2022-10-16T15:40:30;18.90;64.00
24678;DHT22;12800;53.094;8.778;2022-10-16T15:42:56;18.90;63.90
24678;DHT22;12800;53.094;8.778;2022-10-16T15:45:21;18.80;64.20
24678;DHT22;12800;53.094;8.778;2022-10-16T15:47:48;18.70;64.50
24678;DHT22;12800;53.094;8.778;2022-10-16T15:50:15;18.70;64.70
24678;DHT22;12800;53.094;8.778;2022-10-16T15:52:41;18.60;64.60
24678;DHT22;12800;53.094;8.778;2022-10-16T15:55:09;18.50;65.00
24678;DHT22;12800;53.094;8.778;2022-10-16T15:57:36;18.40;65.60
24678;DHT22;12800;53.094;8.778;2022-10-16T16:00:05;18.40;66.00
24678;DHT22;12800;53.094;8.778;2022-10-16T16:02:31;18.30;66.30
24678;DHT22;12800;53.094;8.778;2022-10-16T16:04:57;18.20;66.50
24678;DHT22;12800;53.094;8.778;2022-10-16T16:07:23;18.10;66.80
24678;DHT22;12800;53.094;8.778;2022-10-16T16:09:48;18.00;67.20
24678;DHT22;12800;53.094;8.778;2022-10-16T16:12:14;17.90;67.50
24678;DHT22;12800;53.094;8.778;2022-10-16T16:14:40;17.90;67.70
24678;DHT22;12800;53.094;8.778;2022-10-16T16:17:06;17.80;68.00
24678;DHT22;12800;53.094;8.778;2022-10-16T16:19:32;17.70;68.40
24678;DHT22;12800;53.094;8.778;2022-10-16T16:21:58;17.60;68.70
24678;DHT22;12800;53.094;8.778;2022-10-16T16:24:24;17.60;68.90
24678;DHT22;12800;53.094;8.778;2022-10-16T16:26:49;17.50;69.20
24678;DHT22;12800;53.094;8.778;2022-10-16T16:29:15;17.40;69.30
24678;DHT22;12800;53.094;8.778;2022-10-16T16:31:41;17.40;69.50
24678;DHT22;12800;53.094;8.778;2022-10-16T16:34:08;17.30;69.80
24678;DHT22;12800;53.094;8.778;2022-10-16T16:36:34;17.20;69.90
24678;DHT22;12800;53.094;8.778;2022-10-16T16:39:00;17.10;70.10
24678;DHT22;12800;53.094;8.778;2022-10-16T16:41:28;17.00;70.40
24678;DHT22;12800;53.094;8.778;2022-10-16T16:43:54;17.00;70.70
24678;DHT22;12800;53.094;8.778;2022-10-16T16:46:21;16.90;70.90
24678;DHT22;12800;53.094;8.778;2022-10-16T16:48:47;16.80;71.00
24678;DHT22;12800;53.094;8.778;2022-10-16T16:51:17;16.80;71.30
24678;DHT22;12800;53.094;8.778;2022-10-16T16:53:50;16.70;71.60
24678;DHT22;12800;53.094;8.778;2022-10-16T16:56:16;16.60;71.80
24678;DHT22;12800;53.094;8.778;2022-10-16T16:58:45;16.50;72.10
24678;DHT22;12800;53.094;8.778;2022-10-16T17:01:11;16.50;72.20
24678;DHT22;12800;53.094;8.778;2022-10-16T17:03:37;16.40;72.50
24678;DHT22;12800;53.094;8.778;2022-10-16T17:06:07;16.40;72.80
24678;DHT22;12800;53.094;8.778;2022-10-16T17:08:34;16.30;73.00
24678;DHT22;12800;53.094;8.778;2022-10-16T17:11:00;16.20;73.10
24678;DHT22;12800;53.094;8.778;2022-10-16T17:13:29;16.20;73.30
24678;DHT22;12800;53.094;8.778;2022-10-16T17:15:55;16.10;73.40
24678;DHT22;12800;53.094;8.778;2022-10-16T17:18:23;16.10;73.60
24678;DHT22;12800;53.094;8.778;2022-10-16T17:20:49;16.00;74.00
24678;DHT22;12800;53.094;8.778;2022-10-16T17:23:17;16.00;74.20
24678;DHT22;12800;53.094;8.778;2022-10-16T17:25:43;15.90;74.20
24678;DHT22;12800;53.094;8.778;2022-10-16T17:28:10;15.90;74.40
24678;DHT22;12800;53.094;8.778;2022-10-16T17:30:37;15.80;74.60
24678;DHT22;12800;53.094;8.778;2022-10-16T17:33:04;15.80;74.80
24678;DHT22;12800;53.094;8.778;2022-10-16T17:35:36;15.70;74.90
24678;DHT22;12800;53.094;8.778;2022-10-16T17:38:03;15.70;75.10
24678;DHT22;12800;53.094;8.778;2022-10-16T17:40:28;15.60;75.10